Portada
METAR-TAF:

METAR-TAF

Aeropuertos :

Castres, Francia

latitud: 43-33-25N, longitud: 2-17-21E, altitud: 239 m

Observación

El informe se hizo hace 21 minutos, a las 03:00 UTC
Viento 9 kt del este-sureste, variando entre este-noreste y sureste
Temperatura 17°C
Humedad 77%
Presión 1015 hPa
Visibilidad 10 km o más
sin nubes por debajo de 1500 m y sin presencia de cumulonimbus.

METAR: LFCK 250300Z AUTO 11009KT 070V130 CAVOK 17/13 Q1015

Hora: 05:21 (03:21 UTC)

Pronóstico

El informe se hizo hace 16 horas y 21 minutos, a las 11:00 UTC
Pronóstico válido del 24 a las 12 UTC al 24 a las 21 UTC
Viento 14 kt del este-sureste
Visibilidad 10 km o más
sin nubes por debajo de 1500 m y sin presencia de cumulonimbus.
Probabilidad 30% :
Temporalmente
del 24 a las 12 UTC al 24 a las 15 UTC
Escasas nubes a una altura de 6000 ft, Cumulus congestus.

TAF: LFCK 241100Z 2412/2421 12014KT CAVOK PROB30 TEMPO 2412/2415 FEW060TCU

Observaciones y pronósticos meteorológicos de más de 4000 aeropuertos (mensajes METAR y TAF).

Los puntos amarillos y rojos representan las estaciones disponibles.

Ponga el ratón en el punto deseado para ver el nombre de la estación.

Haga clic para ver las observaciones y los pronósticos meteorológicos.

Para cambiar el mapa : haga clic en los botones verdes con una cruz de color negro para hacer un zoom, en el botón verde con un guión para alejar o en las flechas verdes para mapas adyacentes.


METAR-TAF: